Weather at East Mountain Airstrip

Public forecast

Using degrees Fahrenheit for public forecast. Weather courtesy of forecast.io.

Closest aviation weather report (METAR) to East Mountain Airstrip

Closest report is Carbon County Regional/Buck Davis Field, 25.1 nm (46.5 km) NE. Retrieved 2022/01/22 18:53 UTC (59 minutes ago):

KPUC 221853Z AUTO 00000KT 10SM CLR 03/M07 A3031 RMK AO2 SLP301 T00331072

Closest aviation forecast (TAF) to East Mountain Airstrip

Closest forecast is Provo-Utah Lake International Airport, 58.2 nm (107.8 km) NNW. Retrieved 2022/01/22 18:33 UTC (1 hour ago):

TAF KPVU 221730Z 2218/2318 32007KT P6SM FEW250 FM230300 VRB03KT P6SM SKC